Time;durP1;ratioP1;P1;durP2;ratioP2;P2;SDS_P1;SDS_P2;PMS_P1;PMS_P2;Temp;Humidity;BMP_temperature;BMP_pressure;BME280_temperature;BME280_humidity;BME280_pressure;Samples;Min_cycle;Max_cycle;Signal;HPM_P1;HPM_P2
2022/07/27 00:00:28;;;;;;;1.20;0.90;;;15.40;1.40;;;16.76;100.00;95310.44;646319;216;31481;-74
2022/07/27 00:03:10;;;;;;;1.23;1.08;;;15.30;1.40;;;16.71;100.00;95311.66;645779;216;31516;-75
2022/07/27 00:05:52;;;;;;;0.80;0.80;;;15.30;1.40;;;16.69;100.00;95311.44;647283;216;31487;-75
2022/07/27 00:08:34;;;;;;;1.20;0.70;;;15.30;1.40;;;16.63;100.00;95303.82;646350;216;31484;-75
2022/07/27 00:11:16;;;;;;;0.83;0.83;;;15.10;1.40;;;16.60;100.00;95299.81;646427;216;32084;-75
2022/07/27 00:13:57;;;;;;;1.50;0.75;;;15.10;1.40;;;16.60;100.00;95294.65;646469;212;31547;-75
2022/07/27 00:19:13;;;;;;;0.80;0.60;;;15.10;1.40;;;16.59;100.00;95297.06;645478;216;31559;-76
2022/07/27 00:21:57;;;;;;;0.70;0.60;;;15.10;1.40;;;16.71;100.00;95292.60;647723;216;32042;-76
2022/07/27 00:24:37;;;;;;;3.70;1.20;;;15.40;1.40;;;16.82;100.00;95283.86;646439;216;31672;-75
2022/07/27 00:27:21;;;;;;;1.00;0.70;;;15.60;1.40;;;17.00;100.00;95278.21;646118;216;32066;-75
2022/07/27 00:30:04;;;;;;;1.12;1.02;;;15.60;1.40;;;17.09;100.00;95282.94;647204;216;31483;-76
2022/07/27 00:32:45;;;;;;;1.10;1.00;;;15.70;1.40;;;17.06;100.00;95276.14;645593;216;32119;-76
2022/07/27 00:35:51;;;;;;;1.60;0.90;;;15.60;1.40;;;16.99;100.00;95278.17;646697;216;31488;-76
2022/07/27 00:38:33;;;;;;;3.60;0.90;;;15.60;1.40;;;16.97;100.00;95275.77;646572;216;31494;-75
2022/07/27 00:41:14;;;;;;;1.60;1.20;;;15.50;1.40;;;16.84;100.00;95270.72;645417;212;31508;-75
2022/07/27 00:43:56;;;;;;;2.70;0.90;;;15.40;1.40;;;16.78;100.00;95267.45;646329;216;31574;-75
2022/07/27 00:46:38;;;;;;;1.67;1.27;;;15.40;1.40;;;16.79;100.00;95270.45;646164;216;31511;-75
2022/07/27 00:49:20;;;;;;;1.10;1.00;;;15.40;1.40;;;16.83;100.00;95273.30;618719;226;31939;-75
2022/07/27 00:52:01;;;;;;;1.10;0.77;;;15.40;1.40;;;16.79;100.00;95278.05;644825;216;31480;-75
2022/07/27 00:54:43;;;;;;;0.70;0.60;;;15.40;1.40;;;16.54;100.00;95279.64;647120;216;32076;-75
2022/07/27 00:57:25;;;;;;;0.80;0.80;;;15.30;1.40;;;16.54;100.00;95278.20;648609;216;31542;-75
2022/07/27 01:00:08;;;;;;;0.90;0.80;;;15.10;1.40;;;16.41;100.00;95278.66;650219;212;31526;-75
2022/07/27 01:02:50;;;;;;;5.10;0.80;;;15.00;1.40;;;16.33;100.00;95278.45;650206;216;31502;-75
2022/07/27 01:05:31;;;;;;;1.37;1.27;;;14.90;1.40;;;16.33;100.00;95270.94;649619;216;31459;-75
2022/07/27 01:08:19;;;;;;;2.10;0.95;;;14.90;1.40;;;16.25;100.00;95270.06;648688;216;31508;-75
2022/07/27 01:11:01;;;;;;;1.70;1.20;;;14.90;1.40;;;16.24;100.00;95266.04;649990;216;31521;-75
2022/07/27 01:16:16;;;;;;;0.80;0.55;;;14.80;1.40;;;16.14;100.00;95259.25;646340;216;31508;-75
2022/07/27 01:18:58;;;;;;;0.90;0.90;;;14.70;1.40;;;16.14;100.00;95252.72;616885;226;32030;-76
2022/07/27 01:21:40;;;;;;;0.77;0.60;;;14.60;1.40;;;16.07;100.00;95250.02;648757;216;31503;-76
2022/07/27 01:24:22;;;;;;;1.20;1.10;;;14.60;1.40;;;16.04;100.00;95251.14;648679;216;31574;-76
2022/07/27 01:27:03;;;;;;;1.30;0.95;;;14.70;1.40;;;15.86;100.00;95247.73;647815;216;31534;-75
2022/07/27 01:29:45;;;;;;;0.70;0.70;;;14.60;1.40;;;15.78;100.00;95243.41;645714;216;31626;-75
2022/07/27 01:32:30;;;;;;;2.30;0.80;;;14.60;1.40;;;15.83;100.00;95240.13;648150;216;31511;-75
2022/07/27 01:35:52;;;;;;;0.90;0.80;;;14.50;1.40;;;15.79;100.00;95231.49;649973;216;31526;-76
2022/07/27 01:38:33;;;;;;;1.10;0.70;;;14.40;1.40;;;15.78;100.00;95226.36;618985;222;31850;-75
2022/07/27 01:41:15;;;;;;;1.90;0.80;;;14.30;1.40;;;15.71;100.00;95230.77;647698;216;31462;-75
2022/07/27 01:43:57;;;;;;;1.37;1.05;;;14.20;1.40;;;15.65;100.00;95226.53;646947;212;31560;-75
2022/07/27 01:46:42;;;;;;;1.05;0.80;;;14.20;1.40;;;15.66;100.00;95222.44;647120;216;31468;-74
2022/07/27 01:49:24;;;;;;;1.20;1.10;;;14.10;1.40;;;15.56;100.00;95221.16;617851;226;32434;-75
2022/07/27 01:52:05;;;;;;;1.20;0.40;;;14.00;1.40;;;15.45;100.00;95220.20;645223;216;31636;-75
2022/07/27 01:54:47;;;;;;;0.90;0.90;;;14.00;1.40;;;15.27;100.00;95215.17;619156;226;31800;-75
2022/07/27 01:57:29;;;;;;;1.42;1.05;;;13.90;1.40;;;15.06;100.00;95213.13;649413;212;32085;-75
2022/07/27 02:00:12;;;;;;;0.80;0.80;;;13.80;1.40;;;15.03;100.00;95211.83;645251;216;31497;-75
2022/07/27 02:02:53;;;;;;;0.60;0.60;;;13.80;1.40;;;15.08;100.00;95218.02;646080;213;31731;-75
2022/07/27 02:05:35;;;;;;;5.93;0.80;;;13.80;1.40;;;14.94;100.00;95220.78;649865;216;31513;-75
2022/07/27 02:08:19;;;;;;;0.90;0.50;;;13.70;1.40;;;14.77;100.00;95224.13;647559;216;31860;-75
2022/07/27 02:13:48;;;;;;;8.95;1.27;;;13.70;1.40;;;14.84;100.00;95224.91;646979;216;31484;-75
2022/07/27 02:16:30;;;;;;;0.65;0.65;;;13.70;1.40;;;14.81;100.00;95232.60;649004;213;31555;-75
2022/07/27 02:19:11;;;;;;;1.10;0.90;;;13.70;1.40;;;14.87;100.00;95231.89;646189;216;31486;-75
2022/07/27 02:21:53;;;;;;;0.95;0.75;;;13.70;1.40;;;14.96;100.00;95235.63;646673;216;32097;-75
2022/07/27 02:24:36;;;;;;;1.25;1.25;;;13.70;1.40;;;14.97;100.00;95233.72;646973;212;31462;-75
2022/07/27 02:27:17;;;;;;;0.65;0.52;;;13.70;1.40;;;15.02;100.00;95230.95;646500;216;31563;-75
2022/07/27 02:29:59;;;;;;;3.47;0.87;;;13.70;1.40;;;15.04;100.00;95230.23;649257;212;42316;-75
2022/07/27 02:32:43;;;;;;;1.80;0.60;;;13.70;1.40;;;15.04;100.00;95238.18;615641;226;31850;-75
2022/07/27 02:35:51;;;;;;;0.65;0.60;;;13.80;1.40;;;15.13;100.00;95240.02;646540;216;31470;-74
2022/07/27 02:38:36;;;;;;;1.53;1.00;;;14.00;1.40;;;15.24;100.00;95237.10;650711;216;31464;-75
2022/07/27 02:41:24;;;;;;;1.35;0.70;;;14.10;1.40;;;15.40;100.00;95231.06;647862;216;31532;-78
2022/07/27 02:44:13;;;;;;;1.40;0.80;;;14.40;1.40;;;15.51;100.00;95233.98;650945;216;31582;-75
2022/07/27 02:46:53;;;;;;;0.60;0.60;;;14.40;1.40;;;15.62;100.00;95235.03;650872;216;31462;-74
2022/07/27 02:49:36;;;;;;;1.25;1.15;;;14.40;1.40;;;15.76;100.00;95243.40;650084;216;31495;-75
2022/07/27 02:52:17;;;;;;;6.30;1.02;;;14.60;1.40;;;15.68;100.00;95241.41;648525;216;31560;-74
2022/07/27 02:54:58;;;;;;;3.80;0.73;;;14.50;1.40;;;15.77;100.00;95245.41;642476;214;31639;-74
2022/07/27 02:57:40;;;;;;;1.15;0.85;;;14.50;1.40;;;15.69;100.00;95252.48;622097;226;31786;-74
2022/07/27 03:00:22;;;;;;;6.60;0.70;;;14.50;1.40;;;15.81;100.00;95253.59;616685;226;31833;-74
2022/07/27 03:03:07;;;;;;;0.90;0.90;;;14.60;1.40;;;15.77;100.00;95263.66;649624;216;31487;-74
2022/07/27 03:05:48;;;;;;;1.65;1.12;;;14.50;1.40;;;15.75;100.00;95260.20;649924;216;31621;-76
2022/07/27 03:08:30;;;;;;;1.00;0.90;;;14.50;1.40;;;15.73;100.00;95266.38;644306;216;31677;-75
2022/07/27 03:11:12;;;;;;;1.20;0.90;;;14.50;1.40;;;15.83;100.00;95263.58;646313;216;31695;-75
2022/07/27 03:13:53;;;;;;;0.77;0.70;;;14.60;1.40;;;15.91;100.00;95262.33;647804;216;31473;-75
2022/07/27 03:16:35;;;;;;;0.80;0.50;;;14.70;1.40;;;16.07;100.00;95263.38;649390;212;31485;-75
2022/07/27 03:19:20;;;;;;;2.70;1.10;;;14.70;1.40;;;16.13;100.00;95262.94;617792;222;31906;-79
2022/07/27 03:22:08;;;;;;;6.90;0.80;;;14.80;1.40;;;16.25;100.00;95263.05;645843;216;32005;-76
2022/07/27 03:24:49;;;;;;;1.80;1.10;;;14.90;1.40;;;16.35;100.00;95262.25;648576;216;31498;-75
2022/07/27 03:27:31;;;;;;;1.10;1.00;;;15.00;1.40;;;16.39;100.00;95264.52;645614;216;31512;-74
2022/07/27 03:30:13;;;;;;;1.20;1.10;;;15.00;1.40;;;16.19;100.00;95266.13;649351;216;31550;-74
2022/07/27 03:32:55;;;;;;;1.00;0.90;;;15.00;1.40;;;16.09;100.00;95263.89;649542;216;31672;-75
2022/07/27 03:35:51;;;;;;;0.68;0.60;;;14.90;1.40;;;15.98;100.00;95262.80;646472;216;31535;-75
2022/07/27 03:38:33;;;;;;;0.93;0.73;;;14.80;1.40;;;16.12;100.00;95261.17;648066;216;31575;-75
2022/07/27 03:41:15;;;;;;;1.52;0.85;;;14.90;1.40;;;16.24;100.00;95256.11;648022;216;31470;-75
2022/07/27 03:43:57;;;;;;;1.52;0.93;;;14.90;1.40;;;16.26;100.00;95260.43;647210;216;31587;-76
2022/07/27 03:46:39;;;;;;;1.55;1.10;;;15.00;1.40;;;16.40;100.00;95255.09;646376;216;31576;-74
2022/07/27 03:49:20;;;;;;;2.03;1.25;;;15.20;1.40;;;16.41;100.00;95259.03;619267;226;31996;-75
2022/07/27 03:52:02;;;;;;;0.80;0.80;;;15.30;1.40;;;16.47;100.00;95254.77;644570;216;31517;-75
2022/07/27 03:54:44;;;;;;;1.90;1.07;;;15.30;1.40;;;16.55;100.00;95247.82;646244;212;31543;-74
2022/07/27 03:57:26;;;;;;;1.00;1.00;;;15.30;1.40;;;16.49;100.00;95240.53;644862;216;31485;-75
2022/07/27 04:00:11;;;;;;;2.00;1.10;;;15.20;1.40;;;16.46;100.00;95238.13;646005;216;32096;-75
2022/07/27 04:02:50;;;;;;;1.13;1.03;;;15.20;1.40;;;16.52;100.00;95236.60;648119;216;31576;-74
2022/07/27 04:08:06;;;;;;;1.50;1.10;;;15.10;1.40;;;16.53;100.00;95232.13;648262;212;31547;-75
2022/07/27 04:10:48;;;;;;;1.58;1.20;;;15.10;1.40;;;16.54;100.00;95231.11;618600;226;32255;-75
2022/07/27 04:13:29;;;;;;;1.10;1.00;;;15.10;1.40;;;16.41;100.00;95227.19;648325;216;42191;-76
2022/07/27 04:16:11;;;;;;;1.52;0.90;;;15.00;1.40;;;16.41;100.00;95226.56;649055;216;31489;-75
2022/07/27 04:18:53;;;;;;;0.50;0.50;;;14.90;1.40;;;16.40;100.00;95225.98;646772;216;31550;-75
2022/07/27 04:21:34;;;;;;;1.20;0.65;;;15.00;1.40;;;16.41;100.00;95228.54;649252;216;31583;-75
2022/07/27 04:24:16;;;;;;;0.80;0.80;;;15.10;1.40;;;16.42;100.00;95235.23;646147;212;31474;-75
2022/07/27 04:27:03;;;;;;;0.80;0.80;;;15.10;1.40;;;16.48;100.00;95234.33;651090;216;31487;-75
2022/07/27 04:29:45;;;;;;;1.10;0.88;;;15.20;1.40;;;16.54;100.00;95242.93;650249;216;31711;-75
2022/07/27 04:32:27;;;;;;;1.40;0.90;;;15.30;1.40;;;16.65;100.00;95242.41;646759;216;32083;-75
2022/07/27 04:35:51;;;;;;;1.10;1.00;;;15.40;1.40;;;16.81;100.00;95243.64;651045;216;31486;-76
2022/07/27 04:38:33;;;;;;;1.80;0.90;;;15.50;1.40;;;17.06;100.00;95238.59;645768;216;31573;-76
2022/07/27 04:41:15;;;;;;;0.90;0.65;;;15.60;1.40;;;17.08;100.00;95232.09;650301;216;31593;-75
2022/07/27 04:43:57;;;;;;;1.90;1.00;;;15.70;1.40;;;17.21;100.00;95235.91;645038;216;31471;-75
2022/07/27 04:46:38;;;;;;;2.50;1.23;;;15.70;1.40;;;17.26;100.00;95231.80;647101;216;31524;-75
2022/07/27 04:49:20;;;;;;;4.00;1.10;;;15.70;1.40;;;17.36;100.00;95229.55;646695;216;32058;-75
2022/07/27 04:52:02;;;;;;;0.60;0.60;;;15.70;1.40;;;17.25;100.00;95229.21;618079;225;31828;-75
2022/07/27 04:54:45;;;;;;;1.30;1.15;;;15.60;1.40;;;17.29;100.00;95232.25;649339;216;31994;-75
2022/07/27 04:57:27;;;;;;;0.80;0.80;;;15.60;1.40;;;17.28;100.00;95236.38;647426;216;31819;-75
2022/07/27 05:00:12;;;;;;;1.02;0.73;;;15.60;1.40;;;17.28;100.00;95241.02;645377;216;31614;-75
2022/07/27 05:05:28;;;;;;;1.30;1.12;;;15.60;1.40;;;17.00;100.00;95249.33;651580;216;31535;-75
2022/07/27 05:08:10;;;;;;;1.08;0.98;;;15.60;1.40;;;16.96;100.00;95246.27;646230;216;31617;-75
2022/07/27 05:10:52;;;;;;;0.98;0.88;;;15.50;1.40;;;16.91;100.00;95243.39;648613;216;31538;-76
2022/07/27 05:13:36;;;;;;;1.37;0.80;;;15.50;1.40;;;17.14;100.00;95246.28;645843;212;31948;-76
2022/07/27 05:16:16;;;;;;;1.60;1.08;;;15.60;1.40;;;17.33;100.00;95238.96;644553;212;31538;-75
2022/07/27 05:18:58;;;;;;;1.20;0.90;;;15.70;1.40;;;17.47;100.00;95244.83;646525;216;31484;-76
2022/07/27 05:21:40;;;;;;;3.67;1.00;;;15.80;1.40;;;17.42;100.00;95247.66;648415;212;31924;-77
2022/07/27 05:24:22;;;;;;;1.37;1.27;;;15.90;1.40;;;17.36;100.00;95249.53;620833;222;31906;-75
2022/07/27 05:27:04;;;;;;;1.12;1.02;;;15.90;1.40;;;17.62;100.00;95255.53;649467;216;31468;-75
2022/07/27 05:29:45;;;;;;;1.00;0.70;;;16.20;1.40;;;17.80;100.00;95259.63;623343;226;31862;-75
2022/07/27 05:32:27;;;;;;;1.58;1.10;;;16.30;1.40;;;18.03;100.00;95270.98;604434;226;32727;-75
2022/07/27 05:35:50;;;;;;;7.20;2.10;;;16.60;1.40;;;18.39;100.00;95275.75;646591;216;31623;-75
2022/07/27 05:38:37;;;;;;;2.75;0.90;;;16.80;1.40;;;18.43;100.00;95281.74;616230;226;32021;-75
2022/07/27 05:41:14;;;;;;;1.30;0.90;;;16.80;1.40;;;18.18;100.00;95287.31;646854;212;31548;-75
2022/07/27 05:43:56;;;;;;;1.20;0.98;;;16.60;1.40;;;18.12;100.00;95278.38;645210;216;31643;-75
2022/07/27 05:46:37;;;;;;;0.93;0.82;;;16.70;1.40;;;18.24;100.00;95277.33;645995;216;31491;-75
2022/07/27 05:49:20;;;;;;;1.80;0.80;;;16.80;1.40;;;18.42;100.00;95282.12;644322;216;31546;-75
2022/07/27 05:52:01;;;;;;;1.00;0.90;;;16.90;1.40;;;18.61;100.00;95277.99;647921;216;31480;-76
2022/07/27 05:54:43;;;;;;;1.10;1.00;;;17.10;1.40;;;18.68;100.00;95276.06;645922;216;31481;-75
2022/07/27 05:57:24;;;;;;;4.07;1.37;;;17.20;1.40;;;18.66;100.00;95281.67;648411;216;31761;-75
2022/07/27 06:00:07;;;;;;;2.78;0.70;;;17.20;1.40;;;18.83;100.00;95286.11;622078;225;43356;-75
2022/07/27 06:02:49;;;;;;;1.37;1.27;;;17.20;1.40;;;18.89;100.00;95282.87;646015;216;31534;-75
2022/07/27 06:05:30;;;;;;;2.50;1.10;;;17.20;1.40;;;19.06;100.00;95287.22;647229;216;31767;-76
2022/07/27 06:08:12;;;;;;;3.67;1.40;;;17.40;1.40;;;18.98;100.00;95288.64;647087;212;31665;-75
2022/07/27 06:10:54;;;;;;;1.62;0.93;;;17.50;1.40;;;19.13;100.00;95292.88;647827;216;31495;-75
2022/07/27 06:13:37;;;;;;;2.05;0.98;;;17.50;1.40;;;19.14;100.00;95297.08;647061;216;42402;-75
2022/07/27 06:16:17;;;;;;;1.60;1.37;;;17.50;1.40;;;19.64;100.00;95294.89;650051;216;42123;-75
2022/07/27 06:19:00;;;;;;;2.85;1.05;;;17.80;1.40;;;19.53;100.00;95290.63;618727;222;31922;-75
2022/07/27 06:21:41;;;;;;;0.90;0.90;;;17.90;1.40;;;19.85;100.00;95294.33;649700;216;31540;-75
2022/07/27 06:24:23;;;;;;;1.20;1.00;;;18.00;1.40;;;20.03;100.00;95302.48;646211;216;31520;-74
2022/07/27 06:27:05;;;;;;;1.02;0.70;;;18.20;1.40;;;19.95;100.00;95299.36;646104;216;32087;-75
2022/07/27 06:29:52;;;;;;;2.55;1.12;;;18.10;1.40;;;20.35;100.00;95297.58;647502;216;31501;-77
2022/07/27 06:32:36;;;;;;;2.10;1.30;;;18.40;1.40;;;20.61;100.00;95294.71;647965;212;31546;-75
2022/07/27 06:35:57;;;;;;;1.80;1.00;;;18.80;1.40;;;20.81;100.00;95298.01;645947;216;31504;-78
2022/07/27 06:38:44;;;;;;;3.00;1.15;;;18.90;1.40;;;21.17;100.00;95291.95;647952;216;31514;-74
2022/07/27 06:41:26;;;;;;;1.10;0.90;;;18.80;1.40;;;20.70;100.00;95299.23;649052;216;32064;-75
2022/07/27 06:44:08;;;;;;;2.40;1.00;;;18.50;1.40;;;20.69;100.00;95307.63;647443;216;31709;-75
2022/07/27 06:46:50;;;;;;;2.10;1.23;;;18.60;1.40;;;20.72;100.00;95300.83;645818;216;31542;-76
2022/07/27 06:49:32;;;;;;;1.77;1.37;;;18.80;1.40;;;20.66;100.00;95291.22;645167;216;31579;-75
2022/07/27 06:52:13;;;;;;;1.30;1.08;;;18.60;1.40;;;20.51;100.00;95293.86;648698;216;31532;-76
2022/07/27 06:54:56;;;;;;;2.20;1.10;;;18.60;1.40;;;20.59;100.00;95291.01;646347;216;31660;-75
2022/07/27 06:57:37;;;;;;;1.20;0.90;;;18.80;1.40;;;20.76;100.00;95293.23;646218;216;31660;-76
2022/07/27 07:00:21;;;;;;;1.20;1.08;;;19.20;1.40;;;20.91;100.00;95294.33;646336;216;31522;-77
2022/07/27 07:03:08;;;;;;;1.00;0.90;;;19.50;1.40;;;21.23;100.00;95290.84;645542;216;31560;-76
2022/07/27 07:05:50;;;;;;;2.17;0.83;;;19.40;1.40;;;21.12;100.00;95298.63;645981;216;33511;-76
2022/07/27 07:08:35;;;;;;;1.17;1.08;;;19.50;1.40;;;21.64;100.00;95295.02;617852;222;31987;-76
2022/07/27 07:11:23;;;;;;;1.60;0.85;;;20.00;1.40;;;22.04;100.00;95292.22;646153;216;31896;-77
2022/07/27 07:14:04;;;;;;;1.17;0.95;;;20.30;1.40;;;22.47;100.00;95291.98;649183;216;31576;-77
2022/07/27 07:16:52;;;;;;;3.03;1.25;;;20.40;1.40;;;22.66;100.00;95289.89;646411;212;31489;-75
2022/07/27 07:19:34;;;;;;;1.30;1.00;;;20.50;1.40;;;22.75;100.00;95287.73;646399;216;31674;-75
2022/07/27 07:22:21;;;;;;;1.30;1.20;;;20.50;1.40;;;22.86;100.00;95290.17;648219;216;31551;-77
2022/07/27 07:25:09;;;;;;;2.92;1.00;;;20.70;1.40;;;23.12;100.00;95290.69;647249;212;31487;-76
2022/07/27 07:27:54;;;;;;;1.90;1.45;;;20.70;1.40;;;23.21;100.00;95285.92;647641;216;42745;-76
2022/07/27 07:30:36;;;;;;;1.10;0.98;;;20.60;1.40;;;23.05;100.00;95285.42;632916;221;42290;-76
2022/07/27 07:35:50;;;;;;;2.10;1.20;;;20.60;1.40;;;22.65;100.00;95288.30;648086;216;31878;-76
2022/07/27 07:38:33;;;;;;;1.20;1.00;;;20.60;1.40;;;22.39;100.00;95292.20;618329;226;32056;-75
2022/07/27 07:41:14;;;;;;;1.12;1.00;;;20.50;1.40;;;22.39;100.00;95291.88;647431;216;42130;-75
2022/07/27 07:43:55;;;;;;;2.33;1.20;;;20.70;1.40;;;23.01;100.00;95287.05;645825;212;31797;-75
2022/07/27 07:46:43;;;;;;;1.98;1.33;;;21.20;1.40;;;23.52;97.06;95281.91;647545;216;32716;-78
2022/07/27 07:49:31;;;;;;;1.20;1.10;;;21.50;1.40;;;23.84;95.80;95285.52;648723;216;31732;-75
2022/07/27 07:52:13;;;;;;;2.20;0.90;;;21.80;1.40;;;24.27;93.22;95287.86;645361;216;32853;-75
2022/07/27 07:54:54;;;;;;;1.10;1.00;;;22.20;1.40;;;24.35;94.58;95290.52;650341;216;31495;-75
2022/07/27 07:57:36;;;;;;;1.95;0.90;;;22.20;1.40;;;23.96;92.92;95290.62;646865;216;31942;-75
2022/07/27 08:00:24;;;;;;;1.80;1.00;;;22.10;1.40;;;24.26;97.51;95289.33;646923;216;32053;-77
2022/07/27 08:03:11;;;;;;;1.30;1.20;;;22.20;1.40;;;24.20;99.23;95298.45;649453;216;31507;-75
2022/07/27 08:05:53;;;;;;;1.23;1.10;;;22.20;1.40;;;23.74;94.52;95296.98;647889;212;32160;-76
2022/07/27 08:08:35;;;;;;;2.15;1.37;;;21.80;1.40;;;23.59;96.89;95291.47;648112;216;31634;-75
2022/07/27 08:11:17;;;;;;;1.35;1.20;;;21.70;1.40;;;23.77;95.76;95289.97;649985;212;31541;-75
2022/07/27 08:13:59;;;;;;;4.40;1.60;;;21.90;1.40;;;23.43;96.16;95295.55;646869;216;32123;-75
2022/07/27 08:16:40;;;;;;;3.15;1.45;;;21.50;1.40;;;23.78;97.88;95297.05;647090;216;31558;-76
2022/07/27 08:19:22;;;;;;;3.58;1.20;;;22.00;1.40;;;24.46;95.55;95298.42;653261;212;31469;-76
2022/07/27 08:22:04;;;;;;;2.62;1.50;;;22.90;1.40;;;24.75;92.21;95299.13;645773;212;32091;-76
2022/07/27 08:24:48;;;;;;;1.60;1.50;;;23.00;1.40;;;24.70;90.12;95295.39;653710;212;31582;-77
2022/07/27 08:27:36;;;;;;;1.83;1.30;;;22.90;1.40;;;25.16;89.13;95288.33;649757;216;31569;-76
2022/07/27 08:30:18;;;;;;;1.70;1.10;;;23.00;1.40;;;24.88;91.23;95297.31;648141;212;32073;-76
2022/07/27 08:33:00;;;;;;;2.70;1.20;;;23.20;1.40;;;25.65;85.26;95297.25;649945;216;31547;-76
2022/07/27 08:35:52;;;;;;;1.70;1.23;;;23.40;1.40;;;25.64;82.35;95295.64;649758;216;31750;-76
2022/07/27 08:38:33;;;;;;;1.20;1.10;;;23.60;1.40;;;25.83;79.94;95297.48;650010;212;31699;-75
2022/07/27 08:41:15;;;;;;;1.60;1.20;;;23.20;1.40;;;25.52;80.34;95296.97;646709;216;31873;-74
2022/07/27 08:43:57;;;;;;;1.17;1.08;;;23.20;1.40;;;25.91;78.03;95301.57;646178;216;42788;-75
2022/07/27 08:46:39;;;;;;;1.37;1.27;;;23.20;1.40;;;25.44;77.05;95299.34;644352;216;32142;-75
2022/07/27 08:49:22;;;;;;;1.40;1.30;;;22.90;1.40;;;25.34;79.60;95295.34;646367;216;31523;-75
2022/07/27 08:52:02;;;;;;;1.20;1.10;;;23.00;1.40;;;24.84;81.72;95299.84;645720;212;31520;-75
2022/07/27 08:54:44;;;;;;;2.00;1.30;;;22.90;1.40;;;25.13;80.84;95295.61;649149;212;31674;-76
2022/07/27 08:57:29;;;;;;;1.27;1.17;;;23.00;1.40;;;24.90;80.55;95298.69;644519;213;31517;-76
2022/07/27 09:00:11;;;;;;;1.20;1.10;;;23.20;1.40;;;25.31;81.27;95298.45;646433;212;32303;-75
2022/07/27 09:02:53;;;;;;;1.98;1.40;;;23.40;1.40;;;25.96;79.43;95292.98;646520;216;31646;-75
2022/07/27 09:05:42;;;;;;;1.00;0.88;;;23.80;1.40;;;26.40;76.10;95295.81;621079;226;42529;-75
2022/07/27 09:08:24;;;;;;;2.35;1.12;;;24.50;1.40;;;27.10;73.51;95304.13;650301;216;31643;-75
2022/07/27 09:11:13;;;;;;;1.08;0.90;;;24.60;1.40;;;26.54;73.13;95308.72;653493;216;32389;-75
2022/07/27 09:13:54;;;;;;;1.75;1.37;;;24.00;1.40;;;26.61;71.89;95308.78;645794;216;42346;-75
2022/07/27 09:16:36;;;;;;;1.40;1.30;;;23.80;1.40;;;26.45;74.93;95306.52;649899;216;31591;-76
2022/07/27 09:19:17;;;;;;;3.47;1.30;;;24.00;1.40;;;27.26;72.39;95306.48;646428;216;31474;-76
2022/07/27 09:22:02;;;;;;;1.15;1.00;;;24.50;1.40;;;28.33;71.10;95301.45;646278;216;42235;-76
2022/07/27 09:24:44;;;;;;;1.30;1.20;;;24.80;1.40;;;27.57;71.37;95303.89;648524;212;31544;-76
2022/07/27 09:27:32;;;;;;;2.00;1.20;;;24.70;1.40;;;28.10;69.04;95300.98;647409;212;31552;-76
2022/07/27 09:30:20;;;;;;;1.40;0.90;;;25.10;1.40;;;28.57;65.32;95300.05;649408;216;31607;-77
2022/07/27 09:35:51;;;;;;;1.35;1.25;;;26.70;1.40;;;29.00;62.57;95300.41;653295;212;31552;-76
2022/07/27 09:38:33;;;;;;;1.20;1.10;;;27.60;1.40;;;30.12;60.88;95295.34;619286;226;31873;-76
2022/07/27 09:41:14;;;;;;;1.55;1.00;;;27.90;1.40;;;30.47;59.89;95297.69;647079;216;31720;-76
2022/07/27 09:43:56;;;;;;;2.10;0.80;;;28.80;1.40;;;30.22;65.18;95305.86;647514;216;31583;-77
2022/07/27 09:46:44;;;;;;;2.47;1.00;;;27.10;1.40;;;28.94;63.35;95306.64;647429;216;42279;-77
2022/07/27 09:49:31;;;;;;;1.48;1.10;;;25.80;1.40;;;30.33;64.81;95302.27;649034;216;31513;-75
2022/07/27 09:52:13;;;;;;;1.40;1.20;;;26.40;1.40;;;30.69;65.80;95292.47;647213;216;32038;-76
2022/07/27 09:54:55;;;;;;;1.40;1.30;;;26.70;1.40;;;29.97;59.17;95294.72;648867;212;31756;-76
2022/07/27 09:57:55;;;;;;;1.05;1.00;;;26.00;1.40;;;28.89;63.52;95295.12;620207;226;32426;-76
2022/07/27 10:00:37;;;;;;;1.20;1.00;;;28.00;1.40;;;30.28;58.85;95293.25;648639;216;42132;-76
2022/07/27 10:03:19;;;;;;;2.50;1.30;;;27.50;1.40;;;30.03;57.03;95299.94;649029;216;31638;-77
2022/07/27 10:06:02;;;;;;;1.58;1.48;;;26.50;1.40;;;30.92;60.29;95293.52;646566;212;31529;-76
2022/07/27 10:08:43;;;;;;;1.40;1.10;;;26.80;1.40;;;30.79;61.40;95291.59;647214;216;31516;-76
2022/07/27 10:11:24;;;;;;;3.30;1.10;;;26.80;1.40;;;31.33;57.83;95290.78;619329;225;32250;-76
2022/07/27 10:14:06;;;;;;;2.75;1.55;;;27.40;1.40;;;31.04;57.56;95293.07;642075;217;31907;-76
2022/07/27 10:16:49;;;;;;;2.70;1.50;;;28.30;1.40;;;31.63;53.69;95291.30;618421;226;32141;-75
2022/07/27 10:19:42;;;;;;;1.00;1.00;;;27.60;1.40;;;31.93;53.14;95293.76;646733;216;31946;-76
2022/07/27 10:22:41;;;;;;;1.73;1.35;;;28.00;1.40;;;31.18;50.60;95295.39;647619;216;31476;-76
2022/07/27 10:28:09;;;;;;;2.25;1.20;;;27.80;1.40;;;31.34;49.11;95297.31;647533;216;31639;-76
2022/07/27 10:30:50;;;;;;;1.30;0.90;;;27.20;1.40;;;30.40;51.24;95305.11;648393;216;31551;-75
2022/07/27 10:35:57;;;;;;;1.40;1.25;;;26.40;1.40;;;30.79;56.24;95304.00;647067;212;31664;-75
2022/07/27 10:38:48;;;;;;;0.80;0.80;;;26.70;1.40;;;30.22;57.02;95310.22;648477;216;31987;-74
2022/07/27 10:41:31;;;;;;;1.12;1.00;;;26.90;1.40;;;29.36;54.02;95310.44;645879;212;31597;-75
2022/07/27 10:44:30;;;;;;;1.00;1.00;;;25.90;1.40;;;29.88;54.90;95311.96;648312;212;31945;-76
2022/07/27 10:47:11;;;;;;;1.50;1.10;;;26.00;1.40;;;29.75;58.73;95309.16;647993;216;31822;-76
2022/07/27 10:49:53;;;;;;;1.33;1.23;;;26.00;1.40;;;29.37;55.53;95307.58;646773;216;31672;-76
2022/07/27 10:52:52;;;;;;;1.40;1.15;;;25.90;1.40;;;31.17;53.71;95299.73;647090;212;31705;-76
2022/07/27 10:55:48;;;;;;;2.42;1.17;;;27.10;1.40;;;30.11;54.55;95304.48;647393;216;31629;-76
2022/07/27 10:58:47;;;;;;;1.60;1.10;;;26.50;1.40;;;30.80;55.48;95300.05;645968;216;31728;-74
2022/07/27 11:01:29;;;;;;;1.55;0.90;;;26.80;1.40;;;30.02;57.05;95305.92;646685;216;43383;-76
2022/07/27 11:04:11;;;;;;;1.50;1.40;;;26.60;1.40;;;31.06;55.59;95300.89;648642;212;31769;-76
2022/07/27 11:06:55;;;;;;;2.80;1.62;;;27.00;1.40;;;28.68;55.50;95308.31;646828;216;31543;-75
2022/07/27 11:09:40;;;;;;;1.10;1.00;;;25.70;1.40;;;29.74;53.84;95311.47;648965;216;31517;-76
2022/07/27 11:12:21;;;;;;;1.40;1.27;;;25.70;1.40;;;29.05;57.07;95309.00;648265;216;31610;-76
2022/07/27 11:15:03;;;;;;;1.85;1.37;;;25.80;1.40;;;30.39;56.23;95308.22;646306;216;31751;-75
2022/07/27 11:17:45;;;;;;;3.30;1.08;;;26.50;1.40;;;29.67;55.54;95309.78;648197;216;42727;-76
2022/07/27 11:20:27;;;;;;;1.50;1.40;;;26.30;1.40;;;29.93;54.30;95310.48;649021;216;31864;-76
2022/07/27 11:23:18;;;;;;;1.20;1.10;;;26.40;1.40;;;29.87;57.63;95307.81;646677;216;31728;-74
2022/07/27 11:26:03;;;;;;;1.62;1.52;;;27.00;1.40;;;29.04;53.20;95309.41;646449;216;32074;-75
2022/07/27 11:28:44;;;;;;;2.20;1.20;;;26.20;1.40;;;31.69;51.84;95304.59;647666;216;31707;-73
2022/07/27 11:31:26;;;;;;;1.48;1.27;;;28.10;1.40;;;32.23;48.90;95302.09;621975;225;31985;-73
2022/07/27 11:35:54;;;;;;;3.65;1.50;;;30.50;1.40;;;35.43;45.84;95294.72;645680;212;31534;-76
2022/07/27 11:38:46;;;;;;;2.00;1.10;;;31.00;1.40;;;30.89;48.60;95296.79;647814;216;31585;-74
2022/07/27 11:41:28;;;;;;;1.80;1.23;;;28.90;1.40;;;33.84;50.78;95287.02;650873;216;31842;-73
2022/07/27 11:44:13;;;;;;;1.20;0.90;;;31.50;1.40;;;36.31;40.13;95277.83;643941;216;31607;-78
2022/07/27 11:46:57;;;;;;;1.45;1.17;;;33.20;99.90;;;31.77;46.69;95286.82;645600;216;31489;-74
2022/07/27 11:49:38;;;;;;;1.20;1.00;;;27.90;99.90;;;33.84;45.20;95283.30;649935;216;31550;-74
2022/07/27 11:52:24;;;;;;;1.92;1.02;;;28.60;99.90;;;36.01;43.23;95275.70;619594;225;31820;-74
2022/07/27 11:55:06;;;;;;;1.40;1.10;;;30.80;1.40;;;35.71;41.99;95276.61;646951;216;31596;-73